createdAt,value
2022-08-09T00:00:04.400Z,21.40
2022-08-09T00:02:42.942Z,21.40
2022-08-09T00:06:17.602Z,21.30
2022-08-09T00:08:10.852Z,21.30
2022-08-09T00:10:39.400Z,21.30
2022-08-09T00:13:17.543Z,21.20
2022-08-09T00:15:58.143Z,21.30
2022-08-09T00:18:26.888Z,21.20
2022-08-09T00:20:55.673Z,21.20
2022-08-09T00:23:55.082Z,21.20
2022-08-09T00:26:10.986Z,21.20
2022-08-09T00:28:39.409Z,21.20
2022-08-09T00:31:30.455Z,21.20
2022-08-09T00:33:54.332Z,21.10
2022-08-09T00:36:22.407Z,21.10
2022-08-09T00:38:56.877Z,21.10
2022-08-09T00:44:15.930Z,21.10
2022-08-09T00:44:20.074Z,21.00
2022-08-09T00:47:04.482Z,21.00
2022-08-09T00:49:36.758Z,21.00
2022-08-09T00:52:06.182Z,20.90
2022-08-09T00:54:44.946Z,20.90
2022-08-09T00:57:12.681Z,20.90
2022-08-09T00:59:47.141Z,20.80
2022-08-09T01:02:22.154Z,20.80
2022-08-09T01:05:02.609Z,20.80
2022-08-09T01:08:01.187Z,20.80
2022-08-09T01:10:42.837Z,20.70
2022-08-09T01:13:53.419Z,20.70
2022-08-09T01:16:23.258Z,20.70
2022-08-09T01:19:02.484Z,20.60
2022-08-09T01:21:53.533Z,20.60
2022-08-09T01:25:01.039Z,20.60
2022-08-09T01:27:31.231Z,20.50
2022-08-09T01:30:04.414Z,20.50
2022-08-09T01:32:46.188Z,20.50
2022-08-09T01:35:37.443Z,20.50
2022-08-09T01:38:15.553Z,20.40
2022-08-09T01:41:05.541Z,20.40
2022-08-09T01:43:42.174Z,20.40
2022-08-09T01:46:28.914Z,20.30
2022-08-09T01:49:00.286Z,20.30
2022-08-09T01:51:44.444Z,20.30
2022-08-09T01:54:24.197Z,20.30
2022-08-09T01:56:52.484Z,20.30
2022-08-09T01:59:20.801Z,20.30
2022-08-09T02:01:58.588Z,20.20
2022-08-09T02:04:28.333Z,20.20
2022-08-09T02:08:36.065Z,20.20
2022-08-09T02:10:10.820Z,20.20
2022-08-09T02:12:38.203Z,20.20
2022-08-09T02:15:08.548Z,20.20
2022-08-09T02:18:00.799Z,20.10
2022-08-09T02:20:40.627Z,20.10
2022-08-09T02:23:26.096Z,20.10
2022-08-09T02:26:01.140Z,20.10
2022-08-09T02:28:38.521Z,20.10
2022-08-09T02:31:10.791Z,20.10
2022-08-09T02:33:58.321Z,20.10
2022-08-09T02:36:38.008Z,20.10
2022-08-09T02:39:14.547Z,20.00
2022-08-09T02:42:06.659Z,20.00
2022-08-09T02:44:38.578Z,20.00
2022-08-09T02:47:10.172Z,20.00
2022-08-09T02:49:46.048Z,20.00
2022-08-09T02:52:25.849Z,19.90
2022-08-09T02:54:57.414Z,19.90
2022-08-09T02:57:25.875Z,19.90
2022-08-09T03:00:21.257Z,19.90
2022-08-09T03:02:58.422Z,19.90
2022-08-09T03:05:27.993Z,19.80
2022-08-09T03:07:55.811Z,19.80
2022-08-09T03:10:24.555Z,19.80
2022-08-09T03:12:53.081Z,19.70
2022-08-09T03:15:20.828Z,19.70
2022-08-09T03:17:57.881Z,19.70
2022-08-09T03:20:29.428Z,19.70
2022-08-09T03:23:00.385Z,19.60
2022-08-09T03:25:58.664Z,19.60
2022-08-09T03:28:30.427Z,19.50
2022-08-09T03:30:57.933Z,19.60
2022-08-09T03:33:26.624Z,19.50
2022-08-09T03:36:16.855Z,19.50
2022-08-09T03:38:44.879Z,19.50
2022-08-09T03:41:16.645Z,19.40
2022-08-09T03:43:51.683Z,19.40
2022-08-09T03:46:30.697Z,19.40
2022-08-09T03:49:04.084Z,19.40
2022-08-09T03:51:55.419Z,19.40
2022-08-09T03:54:29.794Z,19.30
2022-08-09T03:57:00.025Z,19.30
2022-08-09T03:59:43.034Z,19.30
2022-08-09T04:02:14.320Z,19.30
2022-08-09T04:04:45.621Z,19.30
2022-08-09T04:07:13.232Z,19.20
2022-08-09T04:09:48.214Z,19.20
2022-08-09T04:12:55.548Z,19.20
2022-08-09T04:15:39.107Z,19.20
2022-08-09T04:18:17.935Z,19.20
2022-08-09T04:20:48.745Z,19.10
2022-08-09T04:23:17.399Z,19.10
2022-08-09T04:25:49.871Z,19.10
2022-08-09T04:28:33.547Z,19.10
2022-08-09T04:31:07.652Z,19.10
2022-08-09T04:33:51.800Z,19.10
2022-08-09T04:36:27.303Z,19.10
2022-08-09T04:38:55.398Z,19.00
2022-08-09T04:41:23.431Z,19.10
2022-08-09T04:44:04.893Z,19.00
2022-08-09T04:46:37.832Z,19.10
2022-08-09T04:49:22.177Z,19.00
2022-08-09T04:52:07.516Z,19.10
2022-08-09T04:54:36.954Z,19.10
2022-08-09T04:57:04.131Z,19.10
2022-08-09T04:59:31.441Z,19.10
2022-08-09T05:01:58.308Z,19.20
2022-08-09T05:04:30.630Z,19.30
2022-08-09T05:06:58.392Z,19.30
2022-08-09T05:09:25.406Z,19.40
2022-08-09T05:12:09.541Z,19.40
2022-08-09T05:14:37.877Z,19.50
2022-08-09T05:18:39.658Z,19.60
2022-08-09T05:19:56.820Z,19.60
2022-08-09T05:23:50.606Z,19.70
2022-08-09T05:25:11.125Z,19.80
2022-08-09T05:27:45.357Z,19.80
2022-08-09T05:30:14.355Z,19.90
2022-08-09T05:32:43.520Z,19.90
2022-08-09T05:35:11.314Z,19.90
2022-08-09T05:37:47.564Z,19.90
2022-08-09T05:40:15.306Z,20.00
2022-08-09T05:42:42.923Z,20.00
2022-08-09T05:45:10.856Z,20.00
2022-08-09T05:47:52.356Z,19.90
2022-08-09T05:50:39.865Z,20.00
2022-08-09T05:53:11.726Z,20.00
2022-08-09T05:55:48.578Z,20.00
2022-08-09T05:58:19.774Z,19.90
2022-08-09T06:00:46.456Z,20.00
2022-08-09T06:03:19.624Z,19.90
2022-08-09T06:05:58.147Z,19.90
2022-08-09T06:08:31.787Z,20.00
2022-08-09T06:10:59.125Z,19.90
2022-08-09T06:13:28.215Z,20.00
2022-08-09T06:15:55.671Z,20.00
2022-08-09T06:18:25.492Z,20.00
2022-08-09T06:20:57.272Z,20.00
2022-08-09T06:23:57.582Z,20.00
2022-08-09T06:26:13.922Z,20.10
2022-08-09T06:28:43.292Z,20.20
2022-08-09T06:31:10.937Z,20.20
2022-08-09T06:33:41.729Z,20.30
2022-08-09T06:36:09.524Z,20.30
2022-08-09T06:38:43.959Z,20.40
2022-08-09T06:41:19.237Z,20.50
2022-08-09T06:43:48.363Z,20.60
2022-08-09T06:46:39.271Z,20.80
2022-08-09T06:49:02.857Z,21.00
2022-08-09T06:51:30.326Z,21.30
2022-08-09T06:54:01.034Z,21.50
2022-08-09T06:56:30.922Z,21.80
2022-08-09T07:00:52.032Z,22.10
2022-08-09T07:01:58.204Z,22.40
2022-08-09T07:04:30.907Z,22.70
2022-08-09T07:07:00.638Z,23.20
2022-08-09T07:09:57.035Z,23.40
2022-08-09T07:12:18.710Z,23.80
2022-08-09T07:14:51.286Z,24.10
2022-08-09T07:17:21.650Z,24.40
2022-08-09T07:19:55.198Z,24.80
2022-08-09T07:22:34.747Z,25.10
2022-08-09T07:25:05.217Z,25.40
2022-08-09T07:27:42.760Z,25.70
2022-08-09T07:30:19.638Z,26.00
2022-08-09T07:32:48.728Z,26.20
2022-08-09T07:35:18.412Z,26.50
2022-08-09T07:37:47.917Z,26.70
2022-08-09T07:40:18.853Z,26.90
2022-08-09T07:42:54.238Z,27.00
2022-08-09T07:45:38.280Z,27.20
2022-08-09T07:48:25.461Z,27.40
2022-08-09T07:51:03.064Z,27.60
2022-08-09T07:54:07.056Z,27.90
2022-08-09T07:56:33.580Z,28.10
2022-08-09T07:59:00.254Z,28.30
2022-08-09T08:01:33.998Z,28.50
2022-08-09T08:04:02.537Z,28.60
2022-08-09T08:06:32.148Z,28.80
2022-08-09T08:09:04.951Z,29.00
2022-08-09T08:12:09.918Z,29.10
2022-08-09T08:14:23.996Z,29.30
2022-08-09T08:17:07.503Z,29.50
2022-08-09T08:19:36.228Z,29.70
2022-08-09T08:22:04.450Z,30.00
2022-08-09T08:24:39.926Z,30.20
2022-08-09T08:27:16.856Z,30.40
2022-08-09T08:29:48.691Z,30.60
2022-08-09T08:32:24.395Z,30.70
2022-08-09T08:34:58.996Z,30.90
2022-08-09T08:37:41.645Z,31.10
2022-08-09T08:40:14.147Z,31.30
2022-08-09T08:42:43.607Z,31.60
2022-08-09T08:45:16.338Z,31.70
2022-08-09T08:47:45.010Z,31.90
2022-08-09T08:50:17.705Z,32.10
2022-08-09T08:52:59.460Z,32.30
2022-08-09T08:55:28.118Z,32.40
2022-08-09T08:57:58.542Z,32.60
2022-08-09T09:00:34.261Z,32.70
2022-08-09T09:03:11.511Z,32.80
2022-08-09T09:06:01.146Z,33.00
2022-08-09T09:08:40.849Z,33.10
2022-08-09T09:11:13.645Z,33.30
2022-08-09T09:13:57.621Z,33.30
2022-08-09T09:16:32.345Z,33.40
2022-08-09T09:22:04.079Z,33.50
2022-08-09T09:24:39.912Z,33.50
2022-08-09T09:28:03.588Z,33.60
2022-08-09T09:30:23.741Z,33.70
2022-08-09T09:33:15.396Z,33.80
2022-08-09T09:36:02.045Z,33.90
2022-08-09T09:38:48.609Z,34.00
2022-08-09T09:41:26.160Z,34.20
2022-08-09T09:44:10.780Z,34.40
2022-08-09T09:46:46.074Z,34.60
2022-08-09T09:49:32.049Z,34.80
2022-08-09T09:52:33.735Z,34.90
2022-08-09T09:55:16.516Z,35.10
2022-08-09T09:58:19.359Z,35.10
2022-08-09T10:00:55.504Z,35.20
2022-08-09T10:03:57.044Z,35.30
2022-08-09T10:06:26.045Z,35.30
2022-08-09T10:09:01.235Z,35.40
2022-08-09T10:11:59.774Z,35.50
2022-08-09T10:14:31.898Z,35.60
2022-08-09T10:17:38.916Z,35.70
2022-08-09T10:19:58.129Z,35.80
2022-08-09T10:22:33.073Z,35.90
2022-08-09T10:25:11.007Z,35.90
2022-08-09T10:27:57.357Z,36.00
2022-08-09T10:34:07.957Z,36.20
2022-08-09T10:36:05.399Z,36.20
2022-08-09T10:38:56.327Z,36.30
2022-08-09T10:41:26.348Z,36.40
2022-08-09T10:44:01.439Z,36.40
2022-08-09T10:47:20.493Z,36.50
2022-08-09T10:50:51.763Z,36.50
2022-08-09T10:53:32.085Z,36.30
2022-08-09T10:56:23.923Z,36.10
2022-08-09T10:58:55.734Z,35.90
2022-08-09T11:03:13.786Z,35.60
2022-08-09T11:04:31.450Z,35.20
2022-08-09T11:06:59.946Z,34.90
2022-08-09T11:09:41.237Z,34.50
2022-08-09T11:12:18.775Z,34.10
2022-08-09T11:14:54.827Z,33.80
2022-08-09T11:17:22.633Z,33.60
2022-08-09T11:20:10.173Z,33.30
2022-08-09T11:22:46.942Z,33.10
2022-08-09T11:25:36.197Z,32.90
2022-08-09T11:28:34.593Z,32.60
2022-08-09T11:31:49.153Z,32.40
2022-08-09T11:34:27.246Z,32.20
2022-08-09T11:36:55.766Z,32.00
2022-08-09T11:39:24.163Z,31.90
2022-08-09T11:41:54.625Z,31.70
2022-08-09T11:44:44.321Z,31.60
2022-08-09T11:47:14.562Z,31.40
2022-08-09T11:50:55.759Z,31.30
2022-08-09T11:53:58.692Z,31.20
2022-08-09T11:56:02.136Z,31.00
2022-08-09T11:58:32.932Z,30.90
2022-08-09T12:01:37.583Z,30.80
2022-08-09T12:04:03.678Z,30.70
2022-08-09T12:06:35.315Z,30.60
2022-08-09T12:09:19.687Z,30.60
2022-08-09T12:12:03.239Z,30.40
2022-08-09T12:14:37.261Z,30.30
2022-08-09T12:17:27.633Z,30.30
2022-08-09T12:20:03.683Z,30.30
2022-08-09T12:22:31.272Z,30.30
2022-08-09T12:25:15.408Z,30.20
2022-08-09T12:29:13.478Z,30.20
2022-08-09T12:30:38.428Z,30.20
2022-08-09T12:33:06.203Z,30.10
2022-08-09T12:35:40.197Z,30.10
2022-08-09T12:38:37.834Z,30.00
2022-08-09T12:41:05.673Z,30.00
2022-08-09T12:44:05.777Z,30.00
2022-08-09T12:46:23.578Z,30.00
2022-08-09T12:48:52.747Z,30.00
2022-08-09T12:51:52.702Z,30.00
2022-08-09T12:54:08.262Z,29.90
2022-08-09T12:56:50.977Z,29.90
2022-08-09T12:59:23.010Z,29.90
2022-08-09T13:01:58.746Z,29.80
2022-08-09T13:04:36.934Z,29.80
2022-08-09T13:07:13.801Z,29.80
2022-08-09T13:09:52.601Z,29.80
2022-08-09T13:12:22.364Z,29.80
2022-08-09T13:14:53.862Z,29.70
2022-08-09T13:17:43.797Z,29.70
2022-08-09T13:20:14.049Z,29.70
2022-08-09T13:23:01.624Z,29.70
2022-08-09T13:25:54.396Z,29.70
2022-08-09T13:28:33.941Z,29.60
2022-08-09T13:32:12.514Z,29.60
2022-08-09T13:33:57.432Z,29.60
2022-08-09T13:36:40.510Z,29.70
2022-08-09T13:41:50.893Z,29.60
2022-08-09T13:42:10.910Z,29.70
2022-08-09T13:44:43.022Z,29.60
2022-08-09T13:47:27.452Z,29.60
2022-08-09T13:50:17.825Z,29.60
2022-08-09T13:52:56.872Z,29.60
2022-08-09T13:55:23.564Z,29.60
2022-08-09T13:57:56.259Z,29.60
2022-08-09T14:00:28.582Z,29.60
2022-08-09T14:03:03.414Z,29.60
2022-08-09T14:06:00.034Z,29.60
2022-08-09T14:08:30.580Z,29.70
2022-08-09T14:10:59.387Z,29.70
2022-08-09T14:14:22.168Z,29.70
2022-08-09T14:16:17.547Z,29.70
2022-08-09T14:18:49.079Z,29.70
2022-08-09T14:21:18.714Z,29.80
2022-08-09T14:23:55.641Z,29.80
2022-08-09T14:26:31.826Z,29.80
2022-08-09T14:29:03.320Z,29.80
2022-08-09T14:31:35.730Z,29.80
2022-08-09T14:34:17.622Z,29.80
2022-08-09T14:36:59.342Z,29.70
2022-08-09T14:39:45.621Z,29.80
2022-08-09T14:42:12.817Z,29.70
2022-08-09T14:45:00.350Z,29.70
2022-08-09T14:47:45.426Z,29.60
2022-08-09T14:50:16.092Z,29.60
2022-08-09T14:52:43.358Z,29.60
2022-08-09T14:55:14.709Z,29.60
2022-08-09T14:57:47.229Z,29.60
2022-08-09T15:00:15.712Z,29.60
2022-08-09T15:02:42.349Z,29.50
2022-08-09T15:05:16.884Z,29.50
2022-08-09T15:07:45.623Z,29.50
2022-08-09T15:10:24.960Z,29.60
2022-08-09T15:12:56.585Z,29.50
2022-08-09T15:15:24.709Z,29.50
2022-08-09T15:17:56.331Z,29.50
2022-08-09T15:21:57.533Z,29.50
2022-08-09T15:24:02.370Z,29.50
2022-08-09T15:25:58.434Z,29.50
2022-08-09T15:28:27.785Z,29.50
2022-08-09T15:31:10.229Z,29.50
2022-08-09T15:34:27.418Z,29.50
2022-08-09T15:36:30.333Z,29.50
2022-08-09T15:39:00.809Z,29.40
2022-08-09T15:41:32.029Z,29.40
2022-08-09T15:44:02.886Z,29.40
2022-08-09T15:46:33.152Z,29.40
2022-08-09T15:49:22.272Z,29.40
2022-08-09T15:52:05.032Z,29.40
2022-08-09T15:54:52.520Z,29.40
2022-08-09T15:57:34.581Z,29.40
2022-08-09T16:00:14.668Z,29.40
2022-08-09T16:02:54.250Z,29.40
2022-08-09T16:05:23.372Z,29.40
2022-08-09T16:07:50.803Z,29.50
2022-08-09T16:10:55.138Z,29.40
2022-08-09T16:13:20.876Z,29.50
2022-08-09T16:16:11.627Z,29.50
2022-08-09T16:18:44.699Z,29.50
2022-08-09T16:21:17.060Z,29.50
2022-08-09T16:23:55.752Z,29.50
2022-08-09T16:26:35.507Z,29.50
2022-08-09T16:29:10.696Z,29.50
2022-08-09T16:32:18.159Z,29.50
2022-08-09T16:34:28.758Z,29.50
2022-08-09T16:36:56.588Z,29.40
2022-08-09T16:39:25.612Z,29.50
2022-08-09T16:42:03.222Z,29.40
2022-08-09T16:44:32.226Z,29.40
2022-08-09T16:47:03.825Z,29.40
2022-08-09T16:50:29.627Z,29.50
2022-08-09T16:52:33.256Z,29.40
2022-08-09T16:55:00.169Z,29.40
2022-08-09T16:57:26.884Z,29.30
2022-08-09T17:00:14.852Z,29.30
2022-08-09T17:02:42.764Z,29.30
2022-08-09T17:05:14.009Z,29.30
2022-08-09T17:08:46.924Z,29.30
2022-08-09T17:10:33.667Z,29.20
2022-08-09T17:13:01.361Z,29.20
2022-08-09T17:15:58.451Z,29.20
2022-08-09T17:18:15.345Z,29.10
2022-08-09T17:20:52.332Z,29.10
2022-08-09T17:23:20.263Z,29.10
2022-08-09T17:25:52.861Z,29.10
2022-08-09T17:28:19.966Z,29.00
2022-08-09T17:30:47.781Z,29.00
2022-08-09T17:33:22.398Z,29.00
2022-08-09T17:35:50.090Z,29.00
2022-08-09T17:38:32.076Z,28.90
2022-08-09T17:41:00.551Z,28.90
2022-08-09T17:43:33.516Z,28.80
2022-08-09T17:46:06.220Z,28.80
2022-08-09T17:48:38.953Z,28.80
2022-08-09T17:51:19.439Z,28.80
2022-08-09T17:53:54.677Z,28.70
2022-08-09T17:56:27.855Z,28.70
2022-08-09T17:58:57.778Z,28.60
2022-08-09T18:01:24.641Z,28.60
2022-08-09T18:03:52.527Z,28.60
2022-08-09T18:06:31.274Z,28.60
2022-08-09T18:09:03.404Z,28.50
2022-08-09T18:12:04.775Z,28.50
2022-08-09T18:14:20.240Z,28.50
2022-08-09T18:16:49.135Z,28.50
2022-08-09T18:20:53.883Z,28.50
2022-08-09T18:22:05.453Z,28.40
2022-08-09T18:24:32.262Z,28.40
2022-08-09T18:27:01.203Z,28.40
2022-08-09T18:30:40.712Z,28.30
2022-08-09T18:32:19.121Z,28.30
2022-08-09T18:34:46.029Z,28.20
2022-08-09T18:37:47.987Z,28.20
2022-08-09T18:40:02.198Z,28.20
2022-08-09T18:42:29.632Z,28.10
2022-08-09T18:44:57.125Z,28.10
2022-08-09T18:47:37.232Z,28.00
2022-08-09T18:50:06.161Z,28.00
2022-08-09T18:52:35.891Z,27.90
2022-08-09T18:55:04.330Z,27.90
2022-08-09T18:57:43.079Z,27.90
2022-08-09T19:00:19.196Z,27.80
2022-08-09T19:02:48.450Z,27.80
2022-08-09T19:05:19.873Z,27.80
2022-08-09T19:07:59.112Z,27.70
2022-08-09T19:10:38.914Z,27.60
2022-08-09T19:13:23.107Z,27.60
2022-08-09T19:15:56.833Z,27.60
2022-08-09T19:18:33.870Z,27.50
2022-08-09T19:21:03.440Z,27.50
2022-08-09T19:24:32.015Z,27.50
2022-08-09T19:26:19.481Z,27.40
2022-08-09T19:29:01.674Z,27.40
2022-08-09T19:31:45.515Z,27.30
2022-08-09T19:34:21.839Z,27.30
2022-08-09T19:36:51.856Z,27.20
2022-08-09T19:39:21.022Z,27.20
2022-08-09T19:42:06.062Z,27.10
2022-08-09T19:44:33.993Z,27.00
2022-08-09T19:47:01.634Z,27.00
2022-08-09T19:50:06.830Z,27.00
2022-08-09T19:52:15.674Z,26.90
2022-08-09T19:54:45.132Z,26.90
2022-08-09T19:57:12.314Z,26.80
2022-08-09T20:00:01.880Z,26.80
2022-08-09T20:04:10.032Z,26.80
2022-08-09T20:05:15.189Z,26.70
2022-08-09T20:07:59.398Z,26.70
2022-08-09T20:10:36.842Z,26.60
2022-08-09T20:13:05.560Z,26.60
2022-08-09T20:16:38.241Z,26.50
2022-08-09T20:18:20.127Z,26.50
2022-08-09T20:20:50.380Z,26.50
2022-08-09T20:23:19.384Z,26.40
2022-08-09T20:25:53.344Z,26.40
2022-08-09T20:28:27.625Z,26.30
2022-08-09T20:31:04.991Z,26.30
2022-08-09T20:33:41.357Z,26.30
2022-08-09T20:36:12.240Z,26.20
2022-08-09T20:41:35.098Z,26.10
2022-08-09T20:44:10.529Z,26.10
2022-08-09T20:46:44.084Z,26.00
2022-08-09T20:49:13.027Z,25.90
2022-08-09T20:51:41.727Z,25.90
2022-08-09T20:54:16.641Z,25.80
2022-08-09T20:56:46.895Z,25.70
2022-08-09T20:59:16.846Z,25.70
2022-08-09T21:01:51.548Z,25.70
2022-08-09T21:05:54.686Z,25.50
2022-08-09T21:07:12.294Z,25.50
2022-08-09T21:09:55.551Z,25.50
2022-08-09T21:12:32.203Z,25.30
2022-08-09T21:15:01.326Z,25.40
2022-08-09T21:18:11.500Z,25.20
2022-08-09T21:20:22.842Z,25.10
2022-08-09T21:22:54.195Z,25.00
2022-08-09T21:25:44.095Z,25.00
2022-08-09T21:28:34.950Z,24.90
2022-08-09T21:31:17.668Z,24.90
2022-08-09T21:33:52.758Z,24.80
2022-08-09T21:36:27.992Z,24.80
2022-08-09T21:38:58.604Z,24.70
2022-08-09T21:42:03.547Z,24.70
2022-08-09T21:44:33.832Z,24.60
2022-08-09T21:47:07.716Z,24.60
2022-08-09T21:49:39.383Z,24.60
2022-08-09T21:52:17.450Z,24.50
2022-08-09T21:54:59.285Z,24.40
2022-08-09T21:57:39.242Z,24.40
2022-08-09T22:00:33.263Z,24.30
2022-08-09T22:03:05.513Z,24.30
2022-08-09T22:05:36.580Z,24.20
2022-08-09T22:08:13.008Z,24.20
2022-08-09T22:11:00.551Z,24.20
2022-08-09T22:13:34.067Z,24.20
2022-08-09T22:16:07.155Z,24.10
2022-08-09T22:18:35.861Z,24.10
2022-08-09T22:21:09.519Z,24.10
2022-08-09T22:24:00.020Z,24.00
2022-08-09T22:26:35.375Z,24.00
2022-08-09T22:29:07.498Z,23.90
2022-08-09T22:31:36.186Z,23.90
2022-08-09T22:34:03.328Z,23.80
2022-08-09T22:36:45.756Z,23.80
2022-08-09T22:39:47.265Z,23.80
2022-08-09T22:42:02.859Z,23.70
2022-08-09T22:44:32.867Z,23.60
2022-08-09T22:48:14.551Z,23.60
2022-08-09T22:49:47.790Z,23.60
2022-08-09T22:52:19.840Z,23.50
2022-08-09T22:54:47.577Z,23.50
2022-08-09T22:57:14.914Z,23.40
2022-08-09T22:59:58.105Z,23.40
2022-08-09T23:02:27.472Z,23.40
2022-08-09T23:04:55.379Z,23.30
2022-08-09T23:08:27.324Z,23.30
2022-08-09T23:10:31.194Z,23.30
2022-08-09T23:12:58.882Z,23.20
2022-08-09T23:15:26.592Z,23.20
2022-08-09T23:17:53.385Z,23.10
2022-08-09T23:20:20.232Z,23.20
2022-08-09T23:22:46.945Z,23.10
2022-08-09T23:25:13.672Z,23.10
2022-08-09T23:28:11.852Z,23.00
2022-08-09T23:30:29.535Z,23.00
2022-08-09T23:32:56.232Z,22.90
2022-08-09T23:35:23.210Z,22.90
2022-08-09T23:37:49.880Z,22.80
2022-08-09T23:40:17.257Z,22.80
2022-08-09T23:42:44.107Z,22.80
2022-08-09T23:45:11.367Z,22.70
2022-08-09T23:47:58.081Z,22.70
2022-08-09T23:50:24.834Z,22.70
2022-08-09T23:52:51.502Z,22.60
2022-08-09T23:55:18.721Z,22.60
2022-08-09T23:57:59.050Z,22.50
